createdAt,value
2023-04-17T00:02:48.491Z,100.00
2023-04-17T00:07:52.194Z,100.00
2023-04-17T00:12:56.820Z,100.00
2023-04-17T00:18:01.540Z,100.00
2023-04-17T00:23:04.987Z,100.00
2023-04-17T00:28:08.124Z,100.00
2023-04-17T00:33:15.635Z,100.00
2023-04-17T00:38:19.143Z,100.00
2023-04-17T00:43:22.452Z,100.00
2023-04-17T00:48:28.180Z,100.00
2023-04-17T00:53:32.437Z,100.00
2023-04-17T00:58:38.367Z,100.00
2023-04-17T01:03:43.756Z,100.00
2023-04-17T01:08:48.147Z,100.00
2023-04-17T01:13:52.241Z,100.00
2023-04-17T01:18:57.254Z,100.00
2023-04-17T01:24:04.040Z,100.00
2023-04-17T01:29:07.956Z,100.00
2023-04-17T01:34:12.242Z,100.00
2023-04-17T01:39:17.626Z,100.00
2023-04-17T01:44:20.936Z,100.00
2023-04-17T01:49:24.299Z,100.00
2023-04-17T01:54:28.970Z,100.00
2023-04-17T01:59:32.176Z,100.00
2023-04-17T02:04:35.610Z,100.00
2023-04-17T02:09:40.437Z,100.00
2023-04-17T02:14:43.848Z,100.00
2023-04-17T02:19:47.117Z,100.00
2023-04-17T02:24:51.710Z,100.00
2023-04-17T02:29:54.877Z,100.00
2023-04-17T02:34:58.297Z,100.00
2023-04-17T02:40:03.176Z,100.00
2023-04-17T02:45:07.925Z,100.00
2023-04-17T02:50:12.634Z,100.00
2023-04-17T02:55:20.215Z,100.00
2023-04-17T03:00:24.501Z,100.00
2023-04-17T03:05:30.563Z,100.00
2023-04-17T03:10:35.838Z,100.00
2023-04-17T03:15:39.137Z,100.00
2023-04-17T03:20:42.992Z,100.00
2023-04-17T03:25:47.706Z,100.00
2023-04-17T03:30:54.414Z,100.00
2023-04-17T03:35:57.864Z,100.00
2023-04-17T03:41:02.645Z,100.00
2023-04-17T03:46:07.736Z,100.00
2023-04-17T03:51:11.277Z,100.00
2023-04-17T03:56:31.729Z,100.00
2023-04-17T04:01:54.303Z,100.00
2023-04-17T04:07:09.125Z,100.00
2023-04-17T04:12:22.470Z,100.00
2023-04-17T04:17:26.890Z,100.00
2023-04-17T04:22:33.120Z,100.00
2023-04-17T04:27:38.005Z,100.00
2023-04-17T04:32:41.375Z,100.00
2023-04-17T04:37:46.625Z,100.00
2023-04-17T04:42:51.307Z,100.00
2023-04-17T04:47:54.714Z,100.00
2023-04-17T04:52:57.937Z,100.00
2023-04-17T04:58:02.907Z,100.00
2023-04-17T05:03:06.753Z,100.00
2023-04-17T05:08:10.380Z,100.00
2023-04-17T05:13:15.160Z,100.00
2023-04-17T05:18:20.300Z,100.00
2023-04-17T05:23:23.454Z,100.00
2023-04-17T05:28:29.854Z,100.00
2023-04-17T05:33:37.856Z,100.00
2023-04-17T05:38:41.488Z,100.00
2023-04-17T05:43:51.052Z,100.00
2023-04-17T05:48:54.451Z,100.00
2023-04-17T05:54:03.804Z,100.00
2023-04-17T05:59:08.456Z,100.00
2023-04-17T06:04:18.794Z,100.00
2023-04-17T06:09:24.480Z,100.00
2023-04-17T06:14:33.463Z,100.00
2023-04-17T06:19:36.675Z,100.00
2023-04-17T06:24:39.933Z,100.00
2023-04-17T06:29:44.779Z,100.00
2023-04-17T06:34:59.047Z,100.00
2023-04-17T06:40:02.457Z,100.00
2023-04-17T06:45:08.444Z,100.00
2023-04-17T06:50:12.064Z,100.00
2023-04-17T06:55:15.412Z,100.00
2023-04-17T07:00:21.475Z,100.00
2023-04-17T07:05:24.902Z,100.00
2023-04-17T07:10:28.420Z,100.00
2023-04-17T07:15:33.676Z,100.00
2023-04-17T07:20:39.976Z,100.00
2023-04-17T07:25:43.443Z,100.00
2023-04-17T07:30:48.322Z,100.00
2023-04-17T07:35:51.602Z,100.00
2023-04-17T07:40:54.830Z,100.00
2023-04-17T07:46:00.035Z,100.00
2023-04-17T07:51:04.473Z,100.00
2023-04-17T07:56:07.915Z,100.00
2023-04-17T08:01:12.489Z,100.00
2023-04-17T08:06:15.665Z,100.00
2023-04-17T08:11:18.855Z,100.00
2023-04-17T08:16:23.623Z,100.00
2023-04-17T08:21:26.933Z,100.00
2023-04-17T08:26:30.195Z,100.00
2023-04-17T08:31:36.757Z,100.00
2023-04-17T08:36:41.025Z,100.00
2023-04-17T08:41:50.573Z,100.00
2023-04-17T08:46:57.973Z,100.00
2023-04-17T08:52:03.497Z,100.00
2023-04-17T08:57:07.219Z,100.00
2023-04-17T09:02:11.928Z,100.00
2023-04-17T09:07:16.730Z,100.00
2023-04-17T09:12:20.341Z,100.00
2023-04-17T09:17:37.974Z,100.00
2023-04-17T09:22:42.421Z,100.00
2023-04-17T09:27:45.852Z,100.00
2023-04-17T09:33:03.894Z,100.00
2023-04-17T09:38:07.500Z,100.00
2023-04-17T09:43:11.660Z,100.00
2023-04-17T09:48:17.639Z,99.64
2023-04-17T09:53:21.318Z,97.13
2023-04-17T09:58:24.890Z,98.46
2023-04-17T10:03:30.117Z,96.85
2023-04-17T10:08:34.081Z,96.68
2023-04-17T10:13:42.997Z,94.56
2023-04-17T10:18:47.711Z,92.45
2023-04-17T10:23:51.169Z,89.55
2023-04-17T10:28:56.003Z,88.19
2023-04-17T10:34:01.045Z,86.43
2023-04-17T10:39:14.351Z,83.85
2023-04-17T10:44:19.451Z,83.81
2023-04-17T10:49:24.199Z,82.52
2023-04-17T10:54:27.612Z,82.54
2023-04-17T10:59:31.036Z,83.14
2023-04-17T11:04:36.647Z,81.52
2023-04-17T11:09:41.445Z,81.37
2023-04-17T11:14:44.548Z,80.55
2023-04-17T11:19:49.118Z,79.06
2023-04-17T11:24:53.030Z,80.31
2023-04-17T11:29:56.360Z,80.17
2023-04-17T11:35:01.167Z,79.16
2023-04-17T11:40:10.234Z,78.17
2023-04-17T11:45:13.699Z,76.74
2023-04-17T11:50:18.688Z,75.80
2023-04-17T11:55:21.969Z,74.59
2023-04-17T12:00:29.387Z,73.92
2023-04-17T12:05:34.108Z,71.28
2023-04-17T12:10:39.554Z,69.36
2023-04-17T12:15:42.944Z,70.33
2023-04-17T12:20:47.918Z,67.63
2023-04-17T12:25:51.120Z,68.07
2023-04-17T12:30:54.572Z,68.50
2023-04-17T12:36:00.159Z,68.55
2023-04-17T12:41:03.447Z,68.99
2023-04-17T12:46:07.058Z,68.76
2023-04-17T12:51:11.980Z,69.52
2023-04-17T12:56:15.679Z,70.85
2023-04-17T13:01:19.663Z,71.23
2023-04-17T13:06:24.306Z,71.39
2023-04-17T13:11:28.071Z,71.00
2023-04-17T13:16:32.193Z,71.25
2023-04-17T13:21:37.012Z,71.09
2023-04-17T13:26:40.489Z,70.23
2023-04-17T13:31:44.426Z,71.04
2023-04-17T13:36:49.827Z,70.96
2023-04-17T13:41:53.515Z,69.35
2023-04-17T13:46:56.853Z,69.71
2023-04-17T13:52:03.347Z,68.33
2023-04-17T13:57:06.783Z,68.45
2023-04-17T14:02:10.419Z,67.60
2023-04-17T14:07:18.403Z,66.98
2023-04-17T14:12:24.775Z,67.55
2023-04-17T14:17:28.000Z,66.64
2023-04-17T14:22:32.477Z,67.17
2023-04-17T14:27:39.694Z,66.93
2023-04-17T14:32:43.182Z,67.35
2023-04-17T14:37:48.578Z,67.49
2023-04-17T14:42:55.202Z,66.09
2023-04-17T14:47:59.248Z,67.09
2023-04-17T14:53:04.579Z,66.65
2023-04-17T14:58:07.740Z,64.35
2023-04-17T15:03:11.523Z,64.03
2023-04-17T15:08:16.932Z,63.58
2023-04-17T15:13:20.620Z,63.25
2023-04-17T15:18:24.064Z,63.78
2023-04-17T15:23:29.988Z,62.83
2023-04-17T15:28:34.137Z,63.90
2023-04-17T15:33:37.845Z,66.59
2023-04-17T15:38:42.505Z,67.17
2023-04-17T15:43:45.771Z,67.72
2023-04-17T15:49:04.653Z,68.81
2023-04-17T15:54:12.284Z,67.92
2023-04-17T15:59:16.485Z,67.89
2023-04-17T16:04:23.134Z,68.22
2023-04-17T16:09:27.886Z,69.22
2023-04-17T16:14:31.200Z,69.38
2023-04-17T16:19:35.492Z,70.47
2023-04-17T16:24:40.525Z,70.80
2023-04-17T16:29:44.418Z,70.40
2023-04-17T16:34:48.658Z,71.23
2023-04-17T16:39:53.582Z,71.72
2023-04-17T16:44:56.835Z,71.67
2023-04-17T16:50:00.096Z,72.15
2023-04-17T16:55:08.568Z,75.50
2023-04-17T17:00:14.003Z,77.32
2023-04-17T17:05:17.531Z,79.17
2023-04-17T17:10:22.261Z,79.53
2023-04-17T17:15:25.781Z,81.30
2023-04-17T17:20:30.334Z,81.90
2023-04-17T17:25:34.861Z,83.44
2023-04-17T17:30:41.033Z,84.10
2023-04-17T17:35:44.414Z,84.87
2023-04-17T17:41:12.890Z,86.69
2023-04-17T17:46:19.472Z,87.20
2023-04-17T17:51:23.871Z,87.01
2023-04-17T17:56:31.326Z,87.83
2023-04-17T18:01:34.890Z,86.94
2023-04-17T18:06:58.173Z,86.01
2023-04-17T18:12:08.667Z,87.23
2023-04-17T18:17:11.965Z,87.38
2023-04-17T18:22:15.586Z,88.72
2023-04-17T18:27:21.061Z,88.78
2023-04-17T18:32:24.829Z,89.73
2023-04-17T18:37:28.207Z,88.87
2023-04-17T18:42:33.128Z,87.87
2023-04-17T18:47:37.258Z,87.80
2023-04-17T18:52:45.029Z,88.40
2023-04-17T18:57:56.903Z,88.92
2023-04-17T19:03:02.541Z,90.02
2023-04-17T19:08:41.620Z,91.49
2023-04-17T19:13:48.091Z,91.80
2023-04-17T19:18:57.957Z,92.94
2023-04-17T19:24:01.213Z,94.35
2023-04-17T19:29:06.133Z,94.30
2023-04-17T19:34:10.664Z,95.29
2023-04-17T19:39:14.505Z,95.22
2023-04-17T19:44:19.457Z,96.26
2023-04-17T19:49:24.045Z,97.08
2023-04-17T19:54:28.296Z,99.35
2023-04-17T19:59:33.071Z,100.00
2023-04-17T20:04:36.392Z,100.00
2023-04-17T20:09:39.789Z,100.00
2023-04-17T20:14:44.687Z,100.00
2023-04-17T20:19:47.961Z,100.00
2023-04-17T20:24:51.173Z,100.00
2023-04-17T20:29:55.788Z,100.00
2023-04-17T20:34:59.203Z,100.00
2023-04-17T20:40:11.958Z,100.00
2023-04-17T20:45:20.884Z,100.00
2023-04-17T20:50:24.348Z,100.00
2023-04-17T20:55:28.152Z,100.00
2023-04-17T21:00:44.546Z,100.00
2023-04-17T21:05:57.889Z,100.00
2023-04-17T21:11:06.273Z,100.00
2023-04-17T21:16:12.970Z,100.00
2023-04-17T21:21:16.366Z,100.00
2023-04-17T21:26:19.739Z,100.00
2023-04-17T21:31:24.680Z,100.00
2023-04-17T21:36:28.726Z,100.00
2023-04-17T21:41:32.176Z,100.00
2023-04-17T21:46:36.834Z,100.00
2023-04-17T21:51:39.929Z,100.00
2023-04-17T21:56:43.004Z,100.00
2023-04-17T22:01:47.617Z,100.00
2023-04-17T22:06:51.828Z,100.00
2023-04-17T22:11:55.038Z,100.00
2023-04-17T22:16:59.624Z,100.00
2023-04-17T22:22:02.968Z,100.00
2023-04-17T22:27:06.131Z,100.00
2023-04-17T22:32:11.199Z,100.00
2023-04-17T22:37:14.452Z,100.00
2023-04-17T22:42:17.562Z,100.00
2023-04-17T22:47:22.902Z,100.00
2023-04-17T22:52:26.100Z,100.00
2023-04-17T22:57:29.431Z,100.00
2023-04-17T23:02:34.255Z,100.00
2023-04-17T23:07:37.760Z,100.00
2023-04-17T23:12:41.117Z,100.00
2023-04-17T23:17:46.233Z,100.00
2023-04-17T23:22:49.494Z,100.00
2023-04-17T23:27:52.625Z,100.00
2023-04-17T23:32:57.449Z,100.00
2023-04-17T23:38:00.836Z,100.00
2023-04-17T23:43:03.947Z,100.00
2023-04-17T23:48:08.597Z,100.00
2023-04-17T23:53:11.773Z,100.00
2023-04-17T23:58:14.993Z,100.00
